Time;durP1;ratioP1;P1;durP2;ratioP2;P2;SDS_P1;SDS_P2;PMS_P1;PMS_P2;Temp;Humidity;BMP_temperature;BMP_pressure;BME280_temperature;BME280_humidity;BME280_pressure;Samples;Min_cycle;Max_cycle;Signal;HPM_P1;HPM_P2
2022/12/03 00:00:16;;;;;;;;;;;13.00;77.20;;;;;;4593361;19;19921;-22
2022/12/03 00:02:08;;;;;;;;;;;13.00;77.20;;;;;;4592946;19;19919;-22
2022/12/03 00:03:39;;;;;;;;;;;13.00;77.30;;;;;;4593051;19;20289;-22
2022/12/03 00:05:10;;;;;;;;;;;13.00;77.20;;;;;;4593026;19;19934;-22
2022/12/03 00:06:42;;;;;;;;;;;13.00;77.40;;;;;;4591293;19;19922;-22
2022/12/03 00:08:13;;;;;;;;;;;13.00;77.80;;;;;;4591503;19;20001;-22
2022/12/03 00:09:45;;;;;;;;;;;13.00;77.30;;;;;;4590865;19;20269;-22
2022/12/03 00:11:16;;;;;;;;;;;13.00;77.20;;;;;;4591045;19;20246;-22
2022/12/03 00:12:47;;;;;;;;;;;13.00;77.10;;;;;;4590665;19;19941;-22
2022/12/03 00:14:18;;;;;;;;;;;13.00;77.10;;;;;;4590600;19;20326;-23
2022/12/03 00:15:49;;;;;;;;;;;13.00;77.30;;;;;;4590865;19;19918;-23
2022/12/03 00:17:20;;;;;;;;;;;13.00;77.20;;;;;;4593122;19;20467;-23
2022/12/03 00:18:51;;;;;;;;;;;13.00;77.10;;;;;;4592449;19;20606;-22
2022/12/03 00:20:22;;;;;;;;;;;13.00;77.00;;;;;;4591358;19;20282;-22
2022/12/03 00:21:53;;;;;;;;;;;13.00;77.00;;;;;;4592081;19;19939;-25
2022/12/03 00:23:25;;;;;;;;;;;13.00;77.00;;;;;;4591311;19;19919;-23
2022/12/03 00:24:56;;;;;;;;;;;13.00;77.00;;;;;;4591049;19;19923;-22
2022/12/03 00:26:27;;;;;;;;;;;13.00;77.10;;;;;;4590636;19;19939;-25
2022/12/03 00:27:58;;;;;;;;;;;13.00;76.90;;;;;;4590272;19;19929;-22
2022/12/03 00:29:30;;;;;;;;;;;13.00;76.90;;;;;;4589524;19;19926;-22
2022/12/03 00:31:01;;;;;;;;;;;13.00;76.90;;;;;;4593062;19;19930;-25
2022/12/03 00:32:32;;;;;;;;;;;13.00;76.80;;;;;;4592898;19;19922;-25
2022/12/03 00:34:04;;;;;;;;;;;13.00;77.00;;;;;;4591146;19;19915;-22
2022/12/03 00:35:36;;;;;;;;;;;13.00;76.90;;;;;;4590035;19;19958;-24
2022/12/03 00:37:07;;;;;;;;;;;13.00;76.80;;;;;;4590263;19;20312;-22
2022/12/03 00:38:39;;;;;;;;;;;13.00;77.20;;;;;;4589451;19;20265;-22
2022/12/03 00:40:10;;;;;;;;;;;13.00;76.80;;;;;;4590131;19;19914;-22
2022/12/03 00:41:41;;;;;;;;;;;13.00;76.70;;;;;;4592514;19;19926;-22
2022/12/03 00:43:14;;;;;;;;;;;13.00;76.90;;;;;;4592196;19;19974;-22
2022/12/03 00:44:45;;;;;;;;;;;13.00;76.90;;;;;;4592109;19;20253;-22
2022/12/03 00:46:16;;;;;;;;;;;13.00;76.80;;;;;;4591437;19;19990;-23
2022/12/03 00:47:47;;;;;;;;;;;13.00;76.90;;;;;;4591151;19;19915;-22
2022/12/03 00:49:18;;;;;;;;;;;13.00;76.90;;;;;;4588262;19;19929;-22
2022/12/03 00:50:49;;;;;;;;;;;13.00;77.00;;;;;;4589528;19;19982;-22
2022/12/03 00:52:21;;;;;;;;;;;13.00;77.00;;;;;;4590260;19;19939;-22
2022/12/03 00:53:51;;;;;;;;;;;13.00;77.00;;;;;;4589781;19;19923;-22
2022/12/03 00:55:23;;;;;;;;;;;13.00;77.10;;;;;;4590241;19;19974;-22
2022/12/03 00:56:55;;;;;;;;;;;12.90;76.90;;;;;;4592037;19;19919;-23
2022/12/03 00:58:26;;;;;;;;;;;13.00;77.00;;;;;;4591793;19;19915;-23
2022/12/03 00:59:57;;;;;;;;;;;13.00;77.00;;;;;;4591791;19;19915;-22
2022/12/03 01:01:29;;;;;;;;;;;13.00;77.00;;;;;;4591293;19;19929;-22
2022/12/03 01:03:01;;;;;;;;;;;13.00;77.10;;;;;;4590578;19;19922;-23
2022/12/03 01:04:32;;;;;;;;;;;13.00;77.10;;;;;;4590345;19;19926;-22
2022/12/03 01:06:04;;;;;;;;;;;13.00;77.10;;;;;;4589765;19;20346;-22
2022/12/03 01:07:35;;;;;;;;;;;13.00;77.00;;;;;;4589655;19;19925;-22
2022/12/03 01:09:07;;;;;;;;;;;13.00;77.10;;;;;;4589116;19;19923;-22
2022/12/03 01:10:38;;;;;;;;;;;13.00;77.00;;;;;;4591733;19;20254;-22
2022/12/03 01:12:10;;;;;;;;;;;13.00;77.00;;;;;;4591783;19;19914;-23
2022/12/03 01:13:41;;;;;;;;;;;13.00;77.00;;;;;;4590181;19;20308;-23
2022/12/03 01:15:13;;;;;;;;;;;13.00;77.10;;;;;;4590877;19;19919;-23
2022/12/03 01:16:45;;;;;;;;;;;13.00;77.20;;;;;;4590652;19;19926;-24
2022/12/03 01:18:17;;;;;;;;;;;13.00;77.20;;;;;;4590638;19;20530;-22
2022/12/03 01:19:51;;;;;;;;;;;13.00;77.20;;;;;;4589779;19;19925;-22
2022/12/03 01:21:22;;;;;;;;;;;13.00;77.40;;;;;;4589872;19;19923;-22
2022/12/03 01:22:53;;;;;;;;;;;13.00;77.50;;;;;;4589057;19;20322;-23
2022/12/03 01:24:25;;;;;;;;;;;13.00;77.60;;;;;;4589334;19;19919;-23
2022/12/03 01:25:56;;;;;;;;;;;13.00;78.00;;;;;;4590510;19;19918;-23
2022/12/03 01:27:28;;;;;;;;;;;12.90;77.50;;;;;;4590991;19;19922;-22
2022/12/03 01:28:59;;;;;;;;;;;13.00;77.40;;;;;;4591045;19;19914;-23
2022/12/03 01:32:15;;;;;;;;;;;13.00;77.50;;;;;;4589677;19;19919;-23
2022/12/03 01:32:25;;;;;;;;;;;13.00;77.50;;;;;;4591189;19;19922;-23
2022/12/03 01:33:56;;;;;;;;;;;13.00;77.50;;;;;;4589738;19;19929;-22
2022/12/03 01:35:27;;;;;;;;;;;13.00;77.50;;;;;;4589446;19;20329;-23
2022/12/03 01:36:58;;;;;;;;;;;13.00;77.50;;;;;;4588944;19;19953;-22
2022/12/03 01:38:30;;;;;;;;;;;13.00;77.50;;;;;;4588407;19;19919;-23
2022/12/03 01:40:01;;;;;;;;;;;13.00;77.40;;;;;;4591729;19;19931;-22
2022/12/03 01:41:33;;;;;;;;;;;13.00;78.00;;;;;;4590165;19;19937;-22
2022/12/03 01:43:04;;;;;;;;;;;12.90;77.30;;;;;;4590766;19;20325;-23
2022/12/03 01:44:37;;;;;;;;;;;13.00;77.40;;;;;;4590289;19;19942;-23
2022/12/03 01:46:09;;;;;;;;;;;12.90;77.30;;;;;;4588860;19;19923;-23
2022/12/03 01:47:40;;;;;;;;;;;13.00;77.40;;;;;;4588005;19;20279;-23
2022/12/03 01:49:15;;;;;;;;;;;12.90;77.30;;;;;;4588103;19;19951;-23
2022/12/03 01:50:48;;;;;;;;;;;12.90;77.40;;;;;;4588979;19;19930;-23
2022/12/03 01:52:23;;;;;;;;;;;12.90;77.30;;;;;;4588936;19;20336;-22
2022/12/03 01:53:54;;;;;;;;;;;12.90;77.50;;;;;;4587327;19;19970;-23
2022/12/03 01:55:27;;;;;;;;;;;12.90;77.50;;;;;;4588572;19;19919;-23
2022/12/03 01:56:59;;;;;;;;;;;12.90;77.40;;;;;;4590060;19;19923;-25
2022/12/03 01:58:30;;;;;;;;;;;12.90;77.40;;;;;;4590510;19;19911;-22
2022/12/03 02:00:00;;;;;;;;;;;13.00;77.40;;;;;;4590636;19;19985;-22
2022/12/03 02:01:31;;;;;;;;;;;12.90;77.40;;;;;;4589853;19;19974;-23
2022/12/03 02:03:06;;;;;;;;;;;12.90;77.40;;;;;;4589550;19;19971;-23
2022/12/03 02:04:37;;;;;;;;;;;12.90;77.40;;;;;;4589339;19;19979;-22
2022/12/03 02:06:12;;;;;;;;;;;12.90;77.50;;;;;;4588153;19;19919;-23
2022/12/03 02:07:43;;;;;;;;;;;12.90;77.50;;;;;;4587844;19;19981;-23
2022/12/03 02:09:14;;;;;;;;;;;12.90;77.40;;;;;;4587732;19;19919;-22
2022/12/03 02:10:45;;;;;;;;;;;12.90;77.60;;;;;;4588317;19;19935;-22
2022/12/03 02:12:17;;;;;;;;;;;12.90;77.60;;;;;;4590938;19;20255;-23
2022/12/03 02:13:48;;;;;;;;;;;12.90;77.80;;;;;;4589337;19;19915;-22
2022/12/03 02:15:19;;;;;;;;;;;12.90;77.70;;;;;;4588807;19;19930;-24
2022/12/03 02:16:51;;;;;;;;;;;12.90;77.90;;;;;;4589548;19;19942;-22
2022/12/03 02:18:22;;;;;;;;;;;12.90;77.70;;;;;;4589347;19;20330;-22
2022/12/03 02:19:53;;;;;;;;;;;12.90;77.60;;;;;;4588887;19;19918;-23
2022/12/03 02:21:47;;;;;;;;;;;12.90;77.70;;;;;;4588650;19;19927;-22
2022/12/03 02:23:27;;;;;;;;;;;12.90;77.80;;;;;;4589236;19;19915;-23
2022/12/03 02:24:58;;;;;;;;;;;12.90;77.70;;;;;;4589033;19;20304;-22
2022/12/03 02:26:30;;;;;;;;;;;12.90;77.70;;;;;;4588466;19;19952;-24
2022/12/03 02:28:01;;;;;;;;;;;12.90;78.40;;;;;;4588276;19;19918;-22
2022/12/03 02:29:32;;;;;;;;;;;13.00;77.90;;;;;;4586768;19;20257;-23
2022/12/03 02:31:04;;;;;;;;;;;12.90;78.00;;;;;;4590890;19;19970;-22
2022/12/03 02:32:35;;;;;;;;;;;12.90;78.60;;;;;;4590151;19;19921;-24
2022/12/03 02:34:06;;;;;;;;;;;12.90;78.00;;;;;;4588849;19;19935;-22
2022/12/03 02:35:37;;;;;;;;;;;12.90;78.00;;;;;;4588799;19;19926;-22
2022/12/03 02:37:12;;;;;;;;;;;12.90;77.90;;;;;;4588310;19;19939;-22
2022/12/03 02:38:43;;;;;;;;;;;12.90;77.70;;;;;;4587107;19;19946;-22
2022/12/03 02:40:17;;;;;;;;;;;12.90;77.80;;;;;;4586635;19;19915;-22
2022/12/03 02:43:37;;;;;;;;;;;12.90;78.10;;;;;;4587167;19;19914;-23
2022/12/03 02:45:10;;;;;;;;;;;12.90;78.00;;;;;;4589261;19;19939;-22
2022/12/03 02:46:41;;;;;;;;;;;12.90;78.00;;;;;;4589953;19;19918;-22
2022/12/03 02:48:13;;;;;;;;;;;12.90;78.20;;;;;;4588494;19;19982;-22
2022/12/03 02:49:45;;;;;;;;;;;12.90;78.10;;;;;;4588860;19;19949;-22
2022/12/03 02:51:16;;;;;;;;;;;12.90;78.10;;;;;;4588904;19;19923;-23
2022/12/03 02:52:48;;;;;;;;;;;13.00;78.10;;;;;;4588779;19;19919;-24
2022/12/03 02:54:21;;;;;;;;;;;13.00;78.00;;;;;;4587630;19;19915;-22
2022/12/03 02:55:55;;;;;;;;;;;13.00;77.80;;;;;;4588716;19;19914;-23
2022/12/03 02:57:26;;;;;;;;;;;13.00;77.70;;;;;;4588184;19;19915;-22
2022/12/03 02:58:59;;;;;;;;;;;12.90;77.70;;;;;;4591103;19;19922;-22
2022/12/03 03:00:32;;;;;;;;;;;13.00;77.80;;;;;;4594066;19;20350;-23
2022/12/03 03:02:03;;;;;;;;;;;13.00;77.80;;;;;;4592445;19;19953;-22
2022/12/03 03:03:34;;;;;;;;;;;13.00;77.70;;;;;;4593182;19;19914;-23
2022/12/03 03:05:06;;;;;;;;;;;13.00;77.80;;;;;;4592551;19;19919;-23
2022/12/03 03:06:39;;;;;;;;;;;13.00;77.80;;;;;;4590495;19;19918;-22
2022/12/03 03:08:11;;;;;;;;;;;13.00;77.90;;;;;;4593978;19;19919;-23
2022/12/03 03:09:43;;;;;;;;;;;13.00;78.40;;;;;;4591615;19;20375;-22
2022/12/03 03:11:13;;;;;;;;;;;13.00;77.80;;;;;;4592952;19;19915;-22
2022/12/03 03:12:45;;;;;;;;;;;13.00;78.00;;;;;;4593468;19;20326;-23
2022/12/03 03:14:16;;;;;;;;;;;13.00;78.00;;;;;;4593271;19;19930;-24
2022/12/03 03:15:47;;;;;;;;;;;13.00;77.90;;;;;;4593307;19;20259;-22
2022/12/03 03:17:18;;;;;;;;;;;12.90;77.90;;;;;;4592617;19;19931;-23
2022/12/03 03:18:49;;;;;;;;;;;12.90;78.00;;;;;;4592982;19;19921;-24
2022/12/03 03:20:20;;;;;;;;;;;12.90;78.50;;;;;;4593089;19;19915;-22
2022/12/03 03:21:52;;;;;;;;;;;12.90;78.20;;;;;;4593244;19;19935;-22
2022/12/03 03:23:25;;;;;;;;;;;13.00;78.30;;;;;;4593396;19;20248;-24
2022/12/03 03:24:57;;;;;;;;;;;13.00;78.10;;;;;;4590735;19;19925;-23
2022/12/03 03:26:28;;;;;;;;;;;13.00;78.20;;;;;;4592308;19;19933;-23
2022/12/03 03:27:59;;;;;;;;;;;13.00;78.20;;;;;;4593200;19;19930;-22
2022/12/03 03:29:31;;;;;;;;;;;13.00;78.10;;;;;;4592867;19;19922;-22
2022/12/03 03:31:03;;;;;;;;;;;12.90;78.00;;;;;;4591873;19;19930;-22
2022/12/03 03:32:33;;;;;;;;;;;12.90;77.90;;;;;;4592770;19;19923;-23
2022/12/03 03:34:04;;;;;;;;;;;13.00;78.10;;;;;;4591730;19;19978;-22
2022/12/03 03:35:36;;;;;;;;;;;12.90;77.90;;;;;;4591891;19;19926;-25
2022/12/03 03:37:07;;;;;;;;;;;12.90;77.90;;;;;;4592425;19;20363;-22
2022/12/03 03:38:38;;;;;;;;;;;12.90;78.00;;;;;;4592047;19;19943;-22
2022/12/03 03:40:09;;;;;;;;;;;12.90;78.00;;;;;;4592127;19;19927;-22
2022/12/03 03:41:43;;;;;;;;;;;12.90;78.00;;;;;;4591876;19;19952;-22
2022/12/03 03:43:14;;;;;;;;;;;12.90;78.60;;;;;;4592328;19;20278;-23
2022/12/03 03:44:46;;;;;;;;;;;12.90;78.00;;;;;;4592997;19;19956;-23
2022/12/03 03:46:17;;;;;;;;;;;12.90;78.10;;;;;;4592845;19;19970;-23
2022/12/03 03:47:48;;;;;;;;;;;12.90;78.00;;;;;;4591304;19;20329;-22
2022/12/03 03:49:20;;;;;;;;;;;13.00;78.00;;;;;;4592089;19;20389;-24
2022/12/03 03:50:51;;;;;;;;;;;12.90;78.20;;;;;;4591475;19;19986;-22
2022/12/03 03:52:22;;;;;;;;;;;12.90;78.20;;;;;;4592103;19;20357;-22
2022/12/03 03:53:54;;;;;;;;;;;12.90;78.30;;;;;;4591122;19;19914;-22
2022/12/03 03:55:27;;;;;;;;;;;12.90;78.90;;;;;;4591468;19;19923;-22
2022/12/03 03:57:00;;;;;;;;;;;12.90;79.60;;;;;;4591333;19;19918;-22
2022/12/03 03:58:31;;;;;;;;;;;12.90;79.70;;;;;;4592524;19;19915;-22
2022/12/03 04:00:03;;;;;;;;;;;12.90;79.70;;;;;;4592579;19;19922;-23
2022/12/03 04:01:34;;;;;;;;;;;13.00;79.80;;;;;;4592365;19;19911;-23
2022/12/03 04:03:05;;;;;;;;;;;13.00;79.80;;;;;;4592659;19;19970;-23
2022/12/03 04:04:37;;;;;;;;;;;13.10;79.70;;;;;;4592415;19;19922;-24
2022/12/03 04:06:08;;;;;;;;;;;13.10;79.80;;;;;;4592385;19;20362;-22
2022/12/03 04:07:39;;;;;;;;;;;13.10;79.70;;;;;;4592273;19;19919;-22
2022/12/03 04:09:10;;;;;;;;;;;13.10;79.60;;;;;;4592325;19;20358;-22
2022/12/03 04:14:24;;;;;;;;;;;13.10;79.50;;;;;;4591197;19;19954;-22
2022/12/03 04:15:55;;;;;;;;;;;13.10;79.30;;;;;;4591263;19;19925;-22
2022/12/03 04:17:27;;;;;;;;;;;13.10;79.30;;;;;;4592062;19;19922;-22
2022/12/03 04:18:58;;;;;;;;;;;13.10;79.40;;;;;;4592103;19;19911;-24
2022/12/03 04:20:31;;;;;;;;;;;13.00;79.20;;;;;;4592154;19;19914;-22
2022/12/03 04:23:52;;;;;;;;;;;13.00;79.20;;;;;;4592391;19;19910;-22
2022/12/03 04:29:02;;;;;;;;;;;13.10;79.40;;;;;;4591795;19;19918;-23
2022/12/03 04:30:33;;;;;;;;;;;13.00;79.20;;;;;;4590838;19;19978;-22
2022/12/03 04:35:47;;;;;;;;;;;13.00;79.80;;;;;;4589809;19;20660;-23
2022/12/03 04:37:19;;;;;;;;;;;13.00;79.70;;;;;;4589470;19;20307;-23
2022/12/03 04:38:50;;;;;;;;;;;13.00;79.70;;;;;;4588856;19;19929;-24
2022/12/03 04:42:12;;;;;;;;;;;12.90;79.60;;;;;;4590242;19;19944;-22
2022/12/03 04:45:32;;;;;;;;;;;13.00;79.60;;;;;;4589525;19;20005;-23
2022/12/03 04:47:04;;;;;;;;;;;13.00;79.60;;;;;;4589654;19;19915;-23
2022/12/03 04:48:35;;;;;;;;;;;13.00;79.60;;;;;;4589460;19;19911;-23
2022/12/03 04:50:06;;;;;;;;;;;13.00;79.50;;;;;;4588489;19;20259;-24
2022/12/03 04:51:37;;;;;;;;;;;13.00;79.50;;;;;;4589172;19;19918;-23
2022/12/03 04:53:08;;;;;;;;;;;13.00;79.60;;;;;;4589268;19;19923;-26
2022/12/03 04:54:39;;;;;;;;;;;13.00;79.70;;;;;;4588757;19;20349;-22
2022/12/03 04:56:12;;;;;;;;;;;13.00;79.70;;;;;;4589167;19;20263;-22
2022/12/03 04:57:43;;;;;;;;;;;13.00;79.60;;;;;;4589096;19;19918;-23
2022/12/03 04:59:15;;;;;;;;;;;13.00;79.70;;;;;;4589266;19;19915;-22
2022/12/03 05:00:46;;;;;;;;;;;13.00;79.60;;;;;;4588981;19;20317;-24
2022/12/03 05:02:17;;;;;;;;;;;13.00;79.60;;;;;;4589122;19;20345;-22
2022/12/03 05:03:50;;;;;;;;;;;13.00;79.60;;;;;;4589039;19;19922;-22
2022/12/03 05:05:22;;;;;;;;;;;13.00;79.60;;;;;;4589069;19;19925;-23
2022/12/03 05:06:53;;;;;;;;;;;13.00;79.50;;;;;;4588964;19;19994;-24
2022/12/03 05:08:26;;;;;;;;;;;13.00;79.60;;;;;;4588957;19;20253;-23
2022/12/03 05:09:57;;;;;;;;;;;13.00;79.50;;;;;;4588335;19;19915;-22
2022/12/03 05:11:28;;;;;;;;;;;13.00;79.70;;;;;;4589619;19;19937;-24
2022/12/03 05:12:59;;;;;;;;;;;13.00;79.80;;;;;;4589333;19;19943;-23
2022/12/03 05:14:31;;;;;;;;;;;13.00;79.70;;;;;;4589978;19;19911;-22
2022/12/03 05:16:02;;;;;;;;;;;13.00;79.80;;;;;;4590537;19;19911;-22
2022/12/03 05:17:33;;;;;;;;;;;13.00;79.90;;;;;;4590804;19;19915;-22
2022/12/03 05:19:05;;;;;;;;;;;13.00;79.90;;;;;;4590927;19;19930;-24
2022/12/03 05:20:40;;;;;;;;;;;13.00;80.00;;;;;;4590587;19;19915;-22
2022/12/03 05:22:12;;;;;;;;;;;13.00;80.00;;;;;;4588398;19;20375;-22
2022/12/03 05:23:44;;;;;;;;;;;13.00;80.10;;;;;;4590742;19;19926;-23
2022/12/03 05:25:15;;;;;;;;;;;13.00;80.10;;;;;;4590911;19;19944;-23
2022/12/03 05:26:47;;;;;;;;;;;13.00;80.20;;;;;;4590605;19;19943;-23
2022/12/03 05:28:21;;;;;;;;;;;13.00;80.10;;;;;;4590531;19;19911;-22
2022/12/03 05:29:53;;;;;;;;;;;13.00;80.30;;;;;;4589836;19;20261;-22
2022/12/03 05:31:24;;;;;;;;;;;13.00;80.30;;;;;;4590789;19;19950;-24
2022/12/03 05:32:55;;;;;;;;;;;13.00;80.40;;;;;;4590560;19;19922;-22
2022/12/03 05:34:26;;;;;;;;;;;13.00;80.50;;;;;;4589833;19;19929;-23
2022/12/03 05:35:59;;;;;;;;;;;13.00;80.60;;;;;;4590739;19;19919;-25
2022/12/03 05:37:31;;;;;;;;;;;13.00;80.70;;;;;;4590617;19;19922;-22
2022/12/03 05:39:03;;;;;;;;;;;13.00;80.70;;;;;;4589466;19;20235;-22
2022/12/03 05:40:34;;;;;;;;;;;12.90;80.60;;;;;;4590550;19;20361;-24
2022/12/03 05:43:55;;;;;;;;;;;12.90;80.60;;;;;;4590480;19;20381;-23
2022/12/03 05:45:33;;;;;;;;;;;13.00;80.70;;;;;;4590491;19;19926;-23
2022/12/03 05:47:04;;;;;;;;;;;12.90;80.90;;;;;;4590364;19;19923;-22
2022/12/03 05:48:35;;;;;;;;;;;13.00;80.90;;;;;;4590442;19;20256;-23
2022/12/03 05:50:06;;;;;;;;;;;13.00;81.00;;;;;;4589574;19;19982;-22
2022/12/03 05:51:38;;;;;;;;;;;13.00;81.00;;;;;;4589327;19;19915;-23
2022/12/03 05:53:09;;;;;;;;;;;13.00;81.00;;;;;;4589871;19;19938;-21
2022/12/03 05:54:42;;;;;;;;;;;13.00;81.00;;;;;;4589421;19;19935;-22
2022/12/03 05:56:14;;;;;;;;;;;12.90;80.90;;;;;;4590039;19;20317;-23
2022/12/03 05:57:45;;;;;;;;;;;12.90;80.90;;;;;;4590394;19;19919;-22
2022/12/03 05:59:16;;;;;;;;;;;12.90;80.90;;;;;;4590292;19;19939;-22
2022/12/03 06:00:48;;;;;;;;;;;13.00;81.00;;;;;;4590096;19;19919;-22
2022/12/03 06:02:20;;;;;;;;;;;12.90;81.00;;;;;;4588764;19;19930;-22
2022/12/03 06:03:51;;;;;;;;;;;12.90;81.10;;;;;;4589755;19;19947;-23
2022/12/03 06:05:22;;;;;;;;;;;12.90;81.10;;;;;;4591043;19;19919;-23
2022/12/03 06:06:53;;;;;;;;;;;13.00;81.10;;;;;;4590622;19;20321;-22
2022/12/03 06:08:25;;;;;;;;;;;13.00;81.20;;;;;;4591233;19;20257;-24
2022/12/03 06:09:56;;;;;;;;;;;13.00;81.20;;;;;;4589709;19;19922;-23
2022/12/03 06:11:29;;;;;;;;;;;13.00;81.40;;;;;;4590568;19;19919;-25
2022/12/03 06:13:01;;;;;;;;;;;12.90;81.40;;;;;;4589778;19;19929;-23
2022/12/03 06:14:33;;;;;;;;;;;13.00;81.60;;;;;;4588905;19;19918;-22
2022/12/03 06:16:04;;;;;;;;;;;13.00;81.60;;;;;;4591333;19;20278;-23
2022/12/03 06:17:35;;;;;;;;;;;13.00;81.50;;;;;;4589073;19;19937;-24
2022/12/03 06:19:07;;;;;;;;;;;12.90;81.40;;;;;;4590845;19;19933;-24
2022/12/03 06:20:38;;;;;;;;;;;13.00;82.00;;;;;;4590258;19;19926;-25
2022/12/03 06:22:09;;;;;;;;;;;12.90;81.50;;;;;;4589610;19;19927;-22
2022/12/03 06:23:43;;;;;;;;;;;12.90;81.50;;;;;;4589066;19;19940;-23
2022/12/03 06:25:15;;;;;;;;;;;12.90;81.60;;;;;;4589600;19;19915;-23
2022/12/03 06:26:47;;;;;;;;;;;12.90;81.60;;;;;;4589257;19;19944;-22
2022/12/03 06:28:18;;;;;;;;;;;13.00;81.70;;;;;;4587816;19;20448;-22
2022/12/03 06:29:49;;;;;;;;;;;13.00;81.50;;;;;;4589500;19;19922;-22
2022/12/03 06:31:20;;;;;;;;;;;13.00;81.70;;;;;;4587796;19;20008;-22
2022/12/03 06:32:52;;;;;;;;;;;13.00;81.70;;;;;;4590014;19;19914;-24
2022/12/03 06:34:22;;;;;;;;;;;13.00;81.80;;;;;;4594432;19;19938;-23
2022/12/03 06:35:53;;;;;;;;;;;13.00;82.00;;;;;;4593468;19;19939;-23
2022/12/03 06:37:25;;;;;;;;;;;13.00;82.00;;;;;;4595164;19;19933;-24
2022/12/03 06:38:56;;;;;;;;;;;13.00;82.10;;;;;;4591643;19;19914;-23
2022/12/03 06:40:27;;;;;;;;;;;13.00;82.10;;;;;;4594560;19;19914;-22
2022/12/03 06:41:58;;;;;;;;;;;13.00;82.10;;;;;;4592167;19;19933;-22
2022/12/03 06:43:29;;;;;;;;;;;13.00;81.90;;;;;;4593876;19;20242;-24
2022/12/03 06:45:02;;;;;;;;;;;13.00;82.00;;;;;;4592980;19;19922;-25
2022/12/03 06:46:34;;;;;;;;;;;13.00;82.20;;;;;;4592682;19;19975;-23
2022/12/03 06:48:05;;;;;;;;;;;13.00;82.20;;;;;;4594729;19;19915;-22
2022/12/03 06:49:36;;;;;;;;;;;13.00;82.30;;;;;;4592888;19;20254;-24
2022/12/03 06:51:07;;;;;;;;;;;13.00;82.20;;;;;;4594800;19;19918;-22
2022/12/03 06:52:38;;;;;;;;;;;13.10;82.20;;;;;;4593221;19;19934;-24
2022/12/03 06:54:09;;;;;;;;;;;13.10;82.20;;;;;;4594083;19;19967;-24
2022/12/03 06:55:40;;;;;;;;;;;13.20;82.10;;;;;;4593713;19;20317;-23
2022/12/03 06:57:11;;;;;;;;;;;13.20;81.90;;;;;;4594028;19;19936;-22
2022/12/03 06:58:42;;;;;;;;;;;13.30;81.90;;;;;;4593569;19;19922;-29
2022/12/03 07:00:15;;;;;;;;;;;12.90;81.30;;;;;;4596229;19;19922;-23
2022/12/03 07:01:46;;;;;;;;;;;10.40;86.10;;;;;;4593517;19;20330;-24
2022/12/03 07:03:17;;;;;;;;;;;9.10;90.00;;;;;;4596429;19;19933;-22
2022/12/03 07:04:48;;;;;;;;;;;8.40;91.00;;;;;;4592418;19;19974;-22
2022/12/03 07:06:19;;;;;;;;;;;8.10;91.40;;;;;;4593304;19;20325;-21
2022/12/03 07:07:51;;;;;;;;;;;7.90;91.80;;;;;;4593539;19;19923;-22
2022/12/03 07:09:22;;;;;;;;;;;7.80;92.10;;;;;;4593929;19;19950;-23
2022/12/03 07:10:53;;;;;;;;;;;7.70;92.30;;;;;;4591801;19;19911;-24
2022/12/03 07:12:24;;;;;;;;;;;7.70;92.60;;;;;;4593512;19;20230;-22
2022/12/03 07:14:00;;;;;;;;;;;7.60;92.50;;;;;;4593659;19;19922;-22
2022/12/03 07:15:31;;;;;;;;;;;7.50;92.90;;;;;;4593298;19;20336;-21
2022/12/03 07:17:01;;;;;;;;;;;7.50;92.70;;;;;;4593434;19;19925;-22
2022/12/03 07:18:33;;;;;;;;;;;7.50;92.60;;;;;;4593818;19;19927;-23
2022/12/03 07:20:07;;;;;;;;;;;8.20;92.50;;;;;;4593316;19;19922;-22
2022/12/03 07:21:40;;;;;;;;;;;9.30;91.30;;;;;;4593488;19;20254;-22
2022/12/03 07:23:11;;;;;;;;;;;10.20;90.20;;;;;;4592126;19;20333;-22
2022/12/03 07:24:42;;;;;;;;;;;10.70;89.20;;;;;;4593285;19;19914;-23
2022/12/03 07:26:14;;;;;;;;;;;11.10;88.30;;;;;;4593401;19;19915;-23
2022/12/03 07:27:45;;;;;;;;;;;11.40;87.40;;;;;;4593026;19;20334;-22
2022/12/03 07:29:16;;;;;;;;;;;11.60;86.70;;;;;;4593417;19;19922;-22
2022/12/03 07:30:47;;;;;;;;;;;11.80;86.50;;;;;;4590416;19;19914;-23
2022/12/03 07:32:20;;;;;;;;;;;11.90;86.00;;;;;;4592512;19;20346;-22
2022/12/03 07:33:51;;;;;;;;;;;12.00;85.60;;;;;;4594922;19;19923;-23
2022/12/03 07:35:22;;;;;;;;;;;12.10;85.20;;;;;;4595810;19;19914;-25
2022/12/03 07:36:54;;;;;;;;;;;12.20;85.00;;;;;;4594842;19;19992;-22
2022/12/03 07:38:25;;;;;;;;;;;12.30;84.90;;;;;;4594268;19;19941;-22
2022/12/03 07:39:56;;;;;;;;;;;10.50;86.10;;;;;;4595434;19;19979;-22
2022/12/03 07:41:28;;;;;;;;;;;9.00;90.10;;;;;;4595503;19;19939;-21
2022/12/03 07:42:59;;;;;;;;;;;8.30;91.00;;;;;;4595088;19;19919;-22
2022/12/03 07:44:30;;;;;;;;;;;7.90;91.90;;;;;;4590653;19;20325;-22
2022/12/03 07:46:02;;;;;;;;;;;8.50;91.80;;;;;;4590473;19;19940;-22
2022/12/03 07:47:34;;;;;;;;;;;9.60;90.60;;;;;;4593353;19;19925;-25
2022/12/03 07:49:06;;;;;;;;;;;10.40;89.60;;;;;;4593184;19;20270;-22
2022/12/03 07:50:37;;;;;;;;;;;11.00;88.10;;;;;;4591873;19;19915;-22
2022/12/03 07:52:08;;;;;;;;;;;11.30;87.10;;;;;;4593027;19;19934;-22
2022/12/03 07:53:39;;;;;;;;;;;11.60;86.50;;;;;;4592148;19;19919;-22
2022/12/03 07:55:11;;;;;;;;;;;11.80;86.10;;;;;;4591588;19;19915;-24
2022/12/03 07:56:42;;;;;;;;;;;11.90;85.70;;;;;;4592572;19;19926;-24
2022/12/03 07:58:13;;;;;;;;;;;12.00;85.50;;;;;;4593619;19;19956;-24
2022/12/03 07:59:45;;;;;;;;;;;12.10;85.30;;;;;;4594588;19;19911;-22
2022/12/03 08:01:16;;;;;;;;;;;12.20;85.10;;;;;;4593880;19;19922;-22
2022/12/03 08:02:47;;;;;;;;;;;12.30;85.00;;;;;;4593683;19;19915;-22
2022/12/03 08:04:20;;;;;;;;;;;12.30;84.80;;;;;;4591743;19;19922;-23
2022/12/03 08:05:51;;;;;;;;;;;12.40;84.80;;;;;;4592914;19;19923;-24
2022/12/03 08:07:22;;;;;;;;;;;12.40;84.60;;;;;;4594732;19;20338;-22
2022/12/03 08:08:53;;;;;;;;;;;12.50;84.60;;;;;;4591577;19;19946;-26
2022/12/03 08:10:25;;;;;;;;;;;12.50;84.30;;;;;;4591350;19;19914;-23
2022/12/03 08:11:55;;;;;;;;;;;12.60;84.10;;;;;;4594159;19;20353;-23
2022/12/03 08:13:27;;;;;;;;;;;12.70;84.00;;;;;;4590925;19;19956;-23
2022/12/03 08:14:58;;;;;;;;;;;12.80;83.90;;;;;;4592157;19;19929;-23
2022/12/03 08:16:29;;;;;;;;;;;12.80;83.70;;;;;;4593370;19;19923;-22
2022/12/03 08:18:00;;;;;;;;;;;12.80;83.50;;;;;;4592640;19;19986;-22
2022/12/03 08:19:31;;;;;;;;;;;12.90;83.50;;;;;;4592434;19;19935;-22
2022/12/03 08:21:04;;;;;;;;;;;12.90;83.60;;;;;;4594100;19;19922;-23
2022/12/03 08:22:36;;;;;;;;;;;12.90;83.50;;;;;;4591037;19;19933;-22
2022/12/03 08:24:13;;;;;;;;;;;12.90;83.40;;;;;;4593740;19;19914;-22
2022/12/03 08:25:44;;;;;;;;;;;12.90;83.30;;;;;;4592275;19;19919;-22
2022/12/03 08:27:16;;;;;;;;;;;13.00;83.30;;;;;;4593648;19;19952;-22
2022/12/03 08:28:50;;;;;;;;;;;13.00;83.30;;;;;;4594113;19;20338;-25
2022/12/03 08:30:21;;;;;;;;;;;13.00;83.30;;;;;;4590372;19;20339;-23
2022/12/03 08:31:53;;;;;;;;;;;13.00;83.80;;;;;;4592053;19;19943;-22
2022/12/03 08:33:25;;;;;;;;;;;13.00;83.20;;;;;;4592756;19;20373;-22
2022/12/03 08:34:56;;;;;;;;;;;13.00;83.20;;;;;;4591742;19;19994;-24
2022/12/03 08:36:28;;;;;;;;;;;13.00;83.40;;;;;;4590662;19;20249;-22
2022/12/03 08:38:09;;;;;;;;;;;12.90;83.20;;;;;;4592278;19;19907;-23
2022/12/03 08:39:44;;;;;;;;;;;12.90;83.20;;;;;;4590732;19;19937;-23
2022/12/03 08:42:40;;;;;;;;;;;12.90;83.10;;;;;;4592742;19;19942;-23
2022/12/03 08:43:10;;;;;;;;;;;13.00;83.40;;;;;;4592246;19;20245;-25
2022/12/03 08:44:41;;;;;;;;;;;13.00;83.20;;;;;;4592310;19;20242;-22
2022/12/03 08:46:14;;;;;;;;;;;13.00;83.10;;;;;;4592108;19;19919;-23
2022/12/03 08:47:45;;;;;;;;;;;13.10;83.00;;;;;;4594323;19;19922;-24
2022/12/03 08:49:16;;;;;;;;;;;13.20;83.10;;;;;;4592331;19;19919;-23
2022/12/03 08:50:49;;;;;;;;;;;13.30;83.00;;;;;;4589729;19;19922;-22
2022/12/03 08:52:20;;;;;;;;;;;13.30;82.90;;;;;;4591961;19;19925;-22
2022/12/03 08:53:52;;;;;;;;;;;13.30;83.00;;;;;;4591827;19;20230;-24
2022/12/03 08:55:30;;;;;;;;;;;13.20;82.90;;;;;;4590904;19;19936;-23
2022/12/03 08:57:11;;;;;;;;;;;13.10;82.90;;;;;;4591784;19;19922;-23
2022/12/03 08:58:43;;;;;;;;;;;13.10;83.10;;;;;;4593478;19;19935;-23
2022/12/03 09:00:18;;;;;;;;;;;13.10;83.10;;;;;;4588412;19;19919;-22
2022/12/03 09:01:49;;;;;;;;;;;13.10;83.20;;;;;;4590592;19;20249;-22
2022/12/03 09:03:20;;;;;;;;;;;13.00;83.20;;;;;;4590913;19;19918;-22
2022/12/03 09:04:53;;;;;;;;;;;13.00;83.20;;;;;;4591623;19;19919;-25
2022/12/03 09:06:24;;;;;;;;;;;13.00;83.10;;;;;;4590225;19;19919;-23
2022/12/03 09:07:55;;;;;;;;;;;13.00;83.10;;;;;;4592272;19;20341;-22
2022/12/03 09:09:26;;;;;;;;;;;13.00;83.20;;;;;;4591564;19;20309;-22
2022/12/03 09:11:00;;;;;;;;;;;13.00;83.10;;;;;;4591141;19;20313;-21
2022/12/03 09:12:31;;;;;;;;;;;13.00;83.30;;;;;;4590593;19;19911;-22
2022/12/03 09:14:02;;;;;;;;;;;13.00;83.20;;;;;;4591860;19;19941;-22
2022/12/03 09:15:34;;;;;;;;;;;13.00;83.30;;;;;;4592461;19;19926;-24